Taylor Fork

This weather station provides wind speed, gust or max wind speed, and wind direction at 9460 ft. near Pika Point above Sunlight Basin.  

This data can be used with temperature and precipitation data from the Carrot Basin SNOTEL site. If the data below is not displayed or up to date, view data here.

This weather station was purchased by the Friends of the Avalanche Center.

Elevation
9460ft
Jump to table bottom
Date Time Temperature
deg F
RH, % Wind Speed Wind Gust Wind Direction
01/28/20 01:00 9.8 92 11 15 S - 181
01/28/20 00:00 10.6 92 10 14 SW - 204
01/27/20 23:00 10.4 93 10 16 S - 202
01/27/20 22:00 10.8 93 9 14 S - 183
01/27/20 21:00 11.0 93 7 18 S - 190
01/27/20 20:00 12.8 93 11 25 W - 261
01/27/20 19:00 13.6 94 13 24 W - 263
01/27/20 18:00 13.8 94 8 20 SW - 240
01/27/20 17:00 14.3 94 11 21 SW - 240
01/27/20 16:00 14.6 93 17 29 W - 277
01/27/20 15:00 15.3 94 19 33 W - 278
01/27/20 14:00 16.5 93 14 23 W - 282
01/27/20 13:00 16.3 93 11 19 W - 272
01/27/20 12:00 17.3 93 7 12 W - 279
01/27/20 11:00 16.6 93 6 11 NW - 295
01/27/20 10:00 14.8 94 5 12 NW - 317
01/27/20 09:00 15.5 94 5 8 W - 281
01/27/20 08:00 15.6 94 5 13 NW - 334
01/27/20 07:00 15.7 94 7 14 NW - 330
01/27/20 06:00 16.7 95 7 15 NW - 334
01/27/20 05:00 16.9 95 9 16 NW - 321
01/27/20 04:00 19.0 95 7 10 NW - 331
01/27/20 03:00 20.3 96 4 9 N - 341
01/27/20 02:00 21.9 96 3 6 W - 267
01/27/20 01:00 22.0 96 4 7 SW - 219
01/27/20 00:00 22.2 96 5 7 S - 199
01/26/20 23:00 22.7 97 5 8 S - 198
01/26/20 22:00 22.6 97 7 12 S - 194
01/26/20 21:00 22.5 97 8 12 S - 167
01/26/20 20:00 22.5 96 11 19 S - 188
01/26/20 19:00 21.9 96 15 19 S - 178
01/26/20 18:00 21.9 96 16 23 S - 191
01/26/20 17:00 22.0 96 16 23 S - 184
01/26/20 16:00 21.9 96 14 21 SE - 157
01/26/20 15:00 22.1 96 15 20 S - 171
01/26/20 14:00 22.0 96 15 23 S - 192
01/26/20 13:00 22.2 96 16 22 S - 202
01/26/20 12:00 21.6 95 16 23 S - 195
01/26/20 11:00 18.9 94 13 21 S - 175
01/26/20 10:00 19.5 95 10 15 S - 161
01/26/20 09:00 17.7 95 8 12 S - 170
01/26/20 08:00 16.2 94 7 13 SE - 149
01/26/20 07:00 16.5 94 10 14 S - 168
01/26/20 06:00 16.1 94 9 13 SE - 146
01/26/20 05:00 15.2 94 10 15 SE - 156
01/26/20 04:00 15.4 94 6 14 SE - 129
01/26/20 03:00 15.4 94 7 10 SE - 139
01/26/20 02:00 15.7 94 6 9 SE - 149
01/26/20 01:00 16.6 94 8 16 S - 175
01/26/20 00:00 17.1 94 9 16 S - 190